createdAt,value
2022-08-18T00:00:24.015Z,22.54
2022-08-18T00:01:25.930Z,22.54
2022-08-18T00:02:31.770Z,22.52
2022-08-18T00:03:57.394Z,22.53
2022-08-18T00:04:58.341Z,22.53
2022-08-18T00:06:01.437Z,22.53
2022-08-18T00:07:04.104Z,22.52
2022-08-18T00:08:06.642Z,22.52
2022-08-18T00:09:10.844Z,22.54
2022-08-18T00:10:15.598Z,22.52
2022-08-18T00:11:22.233Z,22.53
2022-08-18T00:12:26.377Z,22.52
2022-08-18T00:13:29.089Z,22.52
2022-08-18T00:14:31.089Z,22.51
2022-08-18T00:15:48.736Z,22.51
2022-08-18T00:16:53.350Z,22.49
2022-08-18T00:17:55.910Z,22.46
2022-08-18T00:18:57.698Z,22.45
2022-08-18T00:20:00.585Z,22.44
2022-08-18T00:21:03.537Z,22.42
2022-08-18T00:22:06.680Z,22.41
2022-08-18T00:23:08.801Z,22.40
2022-08-18T00:24:11.387Z,22.39
2022-08-18T00:25:16.481Z,22.38
2022-08-18T00:26:19.020Z,22.39
2022-08-18T00:27:23.221Z,22.39
2022-08-18T00:28:26.337Z,22.39
2022-08-18T00:29:28.180Z,22.40
2022-08-18T00:30:30.696Z,22.40
2022-08-18T00:31:33.093Z,22.41
2022-08-18T00:32:39.417Z,22.40
2022-08-18T00:33:40.972Z,22.40
2022-08-18T00:34:44.049Z,22.40
2022-08-18T00:35:45.672Z,22.40
2022-08-18T00:36:50.150Z,22.38
2022-08-18T00:37:52.080Z,22.37
2022-08-18T00:38:54.930Z,22.36
2022-08-18T00:39:57.518Z,22.35
2022-08-18T00:40:59.201Z,22.32
2022-08-18T00:42:13.685Z,22.30
2022-08-18T00:43:34.411Z,22.29
2022-08-18T00:45:28.114Z,22.26
2022-08-18T00:46:33.247Z,22.24
2022-08-18T00:47:42.468Z,22.24
2022-08-18T00:48:48.538Z,22.21
2022-08-18T00:49:54.165Z,22.21
2022-08-18T00:50:57.699Z,22.21
2022-08-18T00:52:02.697Z,22.18
2022-08-18T00:53:09.299Z,22.17
2022-08-18T00:54:16.616Z,22.17
2022-08-18T00:55:19.406Z,22.15
2022-08-18T00:56:26.371Z,22.14
2022-08-18T00:57:29.280Z,22.13
2022-08-18T00:58:37.174Z,22.10
2022-08-18T00:59:45.373Z,22.10
2022-08-18T01:00:50.553Z,22.09
2022-08-18T01:01:55.599Z,22.08
2022-08-18T01:03:03.896Z,22.06
2022-08-18T01:04:09.712Z,22.05
2022-08-18T01:05:18.897Z,22.03
2022-08-18T01:06:26.689Z,22.00
2022-08-18T01:07:36.587Z,21.99
2022-08-18T01:08:38.641Z,21.98
2022-08-18T01:09:43.545Z,21.94
2022-08-18T01:10:45.578Z,21.91
2022-08-18T01:11:48.548Z,21.89
2022-08-18T01:12:53.273Z,21.86
2022-08-18T01:14:00.142Z,21.85
2022-08-18T01:15:02.095Z,21.82
2022-08-18T01:16:25.737Z,21.81
2022-08-18T01:17:46.411Z,21.80
2022-08-18T01:19:06.712Z,21.79
2022-08-18T01:20:31.238Z,21.78
2022-08-18T01:21:53.216Z,21.78
2022-08-18T01:23:04.594Z,21.78
2022-08-18T01:24:11.409Z,21.78
2022-08-18T01:25:32.834Z,21.78
2022-08-18T01:26:37.524Z,21.78
2022-08-18T01:27:48.032Z,21.79
2022-08-18T01:28:50.579Z,21.80
2022-08-18T01:29:53.353Z,21.81
2022-08-18T01:30:58.257Z,21.80
2022-08-18T01:32:00.866Z,21.83
2022-08-18T01:33:02.540Z,21.83
2022-08-18T01:34:06.232Z,21.88
2022-08-18T01:35:10.440Z,21.90
2022-08-18T01:36:22.227Z,21.92
2022-08-18T01:37:25.389Z,21.92
2022-08-18T01:38:32.171Z,21.92
2022-08-18T01:41:01.000Z,21.93
2022-08-18T01:41:22.377Z,21.95
2022-08-18T01:42:19.361Z,21.95
2022-08-18T01:43:21.217Z,21.95
2022-08-18T01:44:23.889Z,21.97
2022-08-18T01:45:26.411Z,21.97
2022-08-18T01:46:30.775Z,21.96
2022-08-18T01:47:48.093Z,21.95
2022-08-18T01:48:51.586Z,21.93
2022-08-18T01:49:53.315Z,21.92
2022-08-18T01:50:56.919Z,21.92
2022-08-18T01:51:58.545Z,21.92
2022-08-18T01:53:01.572Z,21.91
2022-08-18T01:54:05.434Z,21.91
2022-08-18T01:55:08.808Z,21.90
2022-08-18T01:56:10.789Z,21.89
2022-08-18T01:57:16.737Z,21.90
2022-08-18T01:58:18.369Z,21.89
2022-08-18T01:59:20.959Z,21.89
2022-08-18T02:00:22.801Z,21.89
2022-08-18T02:01:35.311Z,21.90
2022-08-18T02:02:41.881Z,21.91
2022-08-18T02:03:49.090Z,21.91
2022-08-18T02:04:55.145Z,21.90
2022-08-18T02:06:00.881Z,21.89
2022-08-18T02:07:06.226Z,21.89
2022-08-18T02:08:08.263Z,21.90
2022-08-18T02:09:12.774Z,21.90
2022-08-18T02:10:16.473Z,21.90
2022-08-18T02:11:19.441Z,21.88
2022-08-18T02:12:21.097Z,21.88
2022-08-18T02:13:24.001Z,21.87
2022-08-18T02:14:27.580Z,21.88
2022-08-18T02:15:30.442Z,21.87
2022-08-18T02:16:33.425Z,21.87
2022-08-18T02:17:39.002Z,21.87
2022-08-18T02:18:47.623Z,21.86
2022-08-18T02:19:51.220Z,21.84
2022-08-18T02:20:52.904Z,21.82
2022-08-18T02:21:55.595Z,21.79
2022-08-18T02:22:58.580Z,21.75
2022-08-18T02:24:02.441Z,21.75
2022-08-18T02:25:07.401Z,21.73
2022-08-18T02:26:14.710Z,21.73
2022-08-18T02:27:16.780Z,21.72
2022-08-18T02:28:19.386Z,21.71
2022-08-18T02:29:21.066Z,21.70
2022-08-18T02:30:24.019Z,21.69
2022-08-18T02:31:35.999Z,21.68
2022-08-18T02:32:38.919Z,21.65
2022-08-18T02:33:41.149Z,21.64
2022-08-18T02:34:54.280Z,21.63
2022-08-18T02:35:56.084Z,21.60
2022-08-18T02:37:00.882Z,21.57
2022-08-18T02:38:04.226Z,21.57
2022-08-18T02:39:09.510Z,21.56
2022-08-18T02:40:14.872Z,21.56
2022-08-18T02:41:18.376Z,21.55
2022-08-18T02:42:20.069Z,21.52
2022-08-18T02:43:22.712Z,21.51
2022-08-18T02:44:24.340Z,21.50
2022-08-18T02:45:27.169Z,21.46
2022-08-18T02:46:30.243Z,21.47
2022-08-18T02:47:34.004Z,21.43
2022-08-18T02:48:35.642Z,21.41
2022-08-18T02:49:38.231Z,21.40
2022-08-18T02:50:47.109Z,21.39
2022-08-18T02:51:52.012Z,21.38
2022-08-18T02:52:54.509Z,21.39
2022-08-18T02:53:59.405Z,21.37
2022-08-18T02:55:02.414Z,21.37
2022-08-18T02:56:32.722Z,21.38
2022-08-18T02:57:44.601Z,21.36
2022-08-18T02:58:48.007Z,21.37
2022-08-18T02:59:49.737Z,21.37
2022-08-18T03:00:52.686Z,21.38
2022-08-18T03:01:56.187Z,21.39
2022-08-18T03:02:58.999Z,21.41
2022-08-18T03:04:01.067Z,21.39
2022-08-18T03:05:03.979Z,21.40
2022-08-18T03:06:06.305Z,21.41
2022-08-18T03:07:09.430Z,21.43
2022-08-18T03:08:11.523Z,21.44
2022-08-18T03:09:16.175Z,21.43
2022-08-18T03:10:32.365Z,21.42
2022-08-18T03:11:38.949Z,21.40
2022-08-18T03:12:41.950Z,21.38
2022-08-18T03:13:45.588Z,21.36
2022-08-18T03:14:47.331Z,21.37
2022-08-18T03:15:53.412Z,21.37
2022-08-18T03:16:59.752Z,21.37
2022-08-18T03:18:02.007Z,21.39
2022-08-18T03:19:04.872Z,21.40
2022-08-18T03:20:07.873Z,21.40
2022-08-18T03:21:14.196Z,21.40
2022-08-18T03:22:28.145Z,21.42
2022-08-18T03:23:32.376Z,21.41
2022-08-18T03:24:34.907Z,21.42
2022-08-18T03:25:43.913Z,21.39
2022-08-18T03:26:47.511Z,21.37
2022-08-18T03:27:50.158Z,21.36
2022-08-18T03:28:54.529Z,21.38
2022-08-18T03:29:58.730Z,21.38
2022-08-18T03:31:00.608Z,21.41
2022-08-18T03:32:04.394Z,21.43
2022-08-18T03:33:06.177Z,21.44
2022-08-18T03:34:09.385Z,21.46
2022-08-18T03:35:11.104Z,21.48
2022-08-18T03:36:17.064Z,21.49
2022-08-18T03:37:18.682Z,21.49
2022-08-18T03:38:21.585Z,21.50
2022-08-18T03:39:24.974Z,21.52
2022-08-18T03:40:26.554Z,21.53
2022-08-18T03:41:43.944Z,21.52
2022-08-18T03:42:54.784Z,21.51
2022-08-18T03:43:58.333Z,21.51
2022-08-18T03:44:59.989Z,21.52
2022-08-18T03:46:06.509Z,21.53
2022-08-18T03:47:10.257Z,21.53
2022-08-18T03:48:12.843Z,21.54
2022-08-18T03:49:14.682Z,21.56
2022-08-18T03:50:18.696Z,21.55
2022-08-18T03:51:24.701Z,21.57
2022-08-18T03:52:27.544Z,21.58
2022-08-18T03:53:29.176Z,21.59
2022-08-18T03:54:33.341Z,21.58
2022-08-18T03:55:34.944Z,21.58
2022-08-18T03:56:39.444Z,21.58
2022-08-18T03:57:41.562Z,21.59
2022-08-18T03:58:47.280Z,21.61
2022-08-18T03:59:49.448Z,21.63
2022-08-18T04:00:52.043Z,21.64
2022-08-18T04:01:55.396Z,21.64
2022-08-18T04:02:59.402Z,21.64
2022-08-18T04:04:03.466Z,21.65
2022-08-18T04:05:07.915Z,21.66
2022-08-18T04:06:16.219Z,21.69
2022-08-18T04:07:32.625Z,21.69
2022-08-18T04:08:34.212Z,21.70
2022-08-18T04:09:38.698Z,21.70
2022-08-18T04:10:40.561Z,21.70
2022-08-18T04:11:44.829Z,21.71
2022-08-18T04:12:46.784Z,21.72
2022-08-18T04:13:51.056Z,21.72
2022-08-18T04:14:53.329Z,21.73
2022-08-18T04:15:55.941Z,21.72
2022-08-18T04:16:58.158Z,21.70
2022-08-18T04:18:04.184Z,21.70
2022-08-18T04:19:07.669Z,21.69
2022-08-18T04:20:12.814Z,21.69
2022-08-18T04:21:14.708Z,21.69
2022-08-18T04:22:18.510Z,21.69
2022-08-18T04:23:21.220Z,21.70
2022-08-18T04:24:24.036Z,21.68
2022-08-18T04:25:32.183Z,21.68
2022-08-18T04:26:38.079Z,21.68
2022-08-18T04:27:42.684Z,21.69
2022-08-18T04:28:45.375Z,21.69
2022-08-18T04:29:49.419Z,21.69
2022-08-18T04:30:51.589Z,21.70
2022-08-18T04:31:54.167Z,21.70
2022-08-18T04:32:55.785Z,21.71
2022-08-18T04:34:00.084Z,21.71
2022-08-18T04:35:02.894Z,21.70
2022-08-18T04:36:11.336Z,21.70
2022-08-18T04:37:13.844Z,21.70
2022-08-18T04:38:16.638Z,21.69
2022-08-18T04:39:18.445Z,21.71
2022-08-18T04:40:25.061Z,21.70
2022-08-18T04:41:27.875Z,21.71
2022-08-18T04:42:30.569Z,21.71
2022-08-18T04:43:33.603Z,21.71
2022-08-18T04:44:37.764Z,21.73
2022-08-18T04:45:41.185Z,21.72
2022-08-18T04:46:47.448Z,21.72
2022-08-18T04:47:50.754Z,21.72
2022-08-18T04:48:58.345Z,21.72
2022-08-18T04:50:00.911Z,21.72
2022-08-18T04:51:06.853Z,21.73
2022-08-18T04:52:39.636Z,21.74
2022-08-18T04:53:47.984Z,21.73
2022-08-18T04:54:50.125Z,21.71
2022-08-18T04:55:54.197Z,21.73
2022-08-18T04:56:56.792Z,21.74
2022-08-18T04:57:58.931Z,21.76
2022-08-18T04:59:04.526Z,21.79
2022-08-18T05:00:08.572Z,21.80
2022-08-18T05:01:17.447Z,21.82
2022-08-18T05:02:21.494Z,21.82
2022-08-18T05:03:26.761Z,21.85
2022-08-18T05:04:30.205Z,21.85
2022-08-18T05:05:32.807Z,21.85
2022-08-18T05:06:35.518Z,21.87
2022-08-18T05:07:44.738Z,21.87
2022-08-18T05:08:48.225Z,21.87
2022-08-18T05:09:51.899Z,21.88
2022-08-18T05:10:54.294Z,21.88
2022-08-18T05:11:56.951Z,21.89
2022-08-18T05:12:58.529Z,21.89
2022-08-18T05:14:02.069Z,21.89
2022-08-18T05:15:06.593Z,21.90
2022-08-18T05:16:11.122Z,21.91
2022-08-18T05:17:17.539Z,21.91
2022-08-18T05:18:22.704Z,21.92
2022-08-18T05:19:27.102Z,21.93
2022-08-18T05:20:29.681Z,21.95
2022-08-18T05:21:33.737Z,21.95
2022-08-18T05:22:39.764Z,21.96
2022-08-18T05:23:43.240Z,21.97
2022-08-18T05:24:45.116Z,21.99
2022-08-18T05:25:48.241Z,22.01
2022-08-18T05:26:56.220Z,22.02
2022-08-18T05:27:58.078Z,22.04
2022-08-18T05:29:18.003Z,22.06
2022-08-18T05:30:22.601Z,22.07
2022-08-18T05:31:28.482Z,22.09
2022-08-18T05:32:47.347Z,22.12
2022-08-18T05:33:55.513Z,22.13
2022-08-18T05:34:57.451Z,22.16
2022-08-18T05:36:04.819Z,22.16
2022-08-18T05:37:24.059Z,22.16
2022-08-18T05:38:42.289Z,22.15
2022-08-18T05:39:56.016Z,22.14
2022-08-18T05:41:14.341Z,22.13
2022-08-18T05:42:19.853Z,22.13
2022-08-18T05:43:22.494Z,22.11
2022-08-18T05:44:31.500Z,22.11
2022-08-18T05:45:35.319Z,22.10
2022-08-18T05:46:43.570Z,22.12
2022-08-18T05:47:47.992Z,22.12
2022-08-18T05:48:50.587Z,22.12
2022-08-18T05:49:54.627Z,22.12
2022-08-18T05:50:57.961Z,22.13
2022-08-18T05:52:04.335Z,22.12
2022-08-18T05:53:13.456Z,22.14
2022-08-18T05:54:37.769Z,22.14
2022-08-18T05:56:00.755Z,22.13
2022-08-18T05:57:08.398Z,22.11
2022-08-18T05:58:15.769Z,22.09
2022-08-18T05:59:26.083Z,22.08
2022-08-18T06:00:30.940Z,22.06
2022-08-18T06:01:38.715Z,22.06
2022-08-18T06:02:48.829Z,22.06
2022-08-18T06:03:55.464Z,22.06
2022-08-18T06:05:01.095Z,22.05
2022-08-18T06:06:08.944Z,22.05
2022-08-18T06:07:33.683Z,22.03
2022-08-18T06:08:40.590Z,22.02
2022-08-18T06:09:48.435Z,22.01
2022-08-18T06:10:51.584Z,22.01
2022-08-18T06:11:59.487Z,22.01
2022-08-18T06:13:03.678Z,22.00
2022-08-18T06:14:05.656Z,22.01
2022-08-18T06:15:14.428Z,22.03
2022-08-18T06:16:25.241Z,22.03
2022-08-18T06:17:43.985Z,22.03
2022-08-18T06:18:54.372Z,22.02
2022-08-18T06:20:04.308Z,22.02
2022-08-18T06:21:16.727Z,22.03
2022-08-18T06:22:31.268Z,22.04
2022-08-18T06:23:42.622Z,22.04
2022-08-18T06:24:51.817Z,22.03
2022-08-18T06:26:05.096Z,22.03
2022-08-18T06:27:14.910Z,22.04
2022-08-18T06:28:18.114Z,22.04
2022-08-18T06:29:34.425Z,22.03
2022-08-18T06:30:49.383Z,22.06
2022-08-18T06:32:01.293Z,22.06
2022-08-18T06:33:18.405Z,22.08
2022-08-18T06:34:37.284Z,22.08
2022-08-18T06:35:45.643Z,22.11
2022-08-18T06:36:55.375Z,22.12
2022-08-18T06:38:28.029Z,22.12
2022-08-18T06:39:36.497Z,22.14
2022-08-18T06:40:38.287Z,22.14
2022-08-18T06:41:45.359Z,22.15
2022-08-18T06:42:48.133Z,22.17
2022-08-18T06:44:01.199Z,22.16
2022-08-18T06:45:11.363Z,22.15
2022-08-18T06:46:17.624Z,22.13
2022-08-18T06:47:32.595Z,22.13
2022-08-18T06:48:40.487Z,22.11
2022-08-18T06:49:51.159Z,22.10
2022-08-18T06:50:55.978Z,22.10
2022-08-18T06:51:58.625Z,22.10
2022-08-18T06:53:04.973Z,22.10
2022-08-18T06:54:09.402Z,22.10
2022-08-18T06:55:17.432Z,22.09
2022-08-18T06:56:27.346Z,22.10
2022-08-18T06:57:32.781Z,22.11
2022-08-18T06:58:35.462Z,22.11
2022-08-18T06:59:38.305Z,22.11
2022-08-18T07:00:46.247Z,22.14
2022-08-18T07:01:54.797Z,22.14
2022-08-18T07:03:01.754Z,22.16
2022-08-18T07:04:03.626Z,22.17
2022-08-18T07:05:09.790Z,22.18
2022-08-18T07:06:31.420Z,22.19
2022-08-18T07:07:39.364Z,22.20
2022-08-18T07:08:54.271Z,22.20
2022-08-18T07:09:56.838Z,22.19
2022-08-18T07:11:12.600Z,22.18
2022-08-18T07:12:22.525Z,22.16
2022-08-18T07:13:27.199Z,22.14
2022-08-18T07:14:29.862Z,22.13
2022-08-18T07:15:32.163Z,22.11
2022-08-18T07:16:57.189Z,22.09
2022-08-18T07:18:06.139Z,22.09
2022-08-18T07:19:08.643Z,22.13
2022-08-18T07:20:21.787Z,22.14
2022-08-18T07:21:33.172Z,22.17
2022-08-18T07:23:07.880Z,22.19
2022-08-18T07:24:25.138Z,22.18
2022-08-18T07:25:32.386Z,22.16
2022-08-18T07:27:00.020Z,22.16
2022-08-18T07:28:02.794Z,22.19
2022-08-18T07:29:13.558Z,22.21
2022-08-18T07:30:29.422Z,22.22
2022-08-18T07:31:44.006Z,22.26
2022-08-18T07:32:49.733Z,22.26
2022-08-18T07:33:58.484Z,22.27
2022-08-18T07:35:04.464Z,22.29
2022-08-18T07:36:10.147Z,22.28
2022-08-18T07:37:18.543Z,22.29
2022-08-18T07:38:44.263Z,22.30
2022-08-18T07:39:52.604Z,22.31
2022-08-18T07:40:58.864Z,22.32
2022-08-18T07:42:07.351Z,22.35
2022-08-18T07:43:17.139Z,22.33
2022-08-18T07:44:26.024Z,22.36
2022-08-18T07:45:32.484Z,22.37
2022-08-18T07:46:45.165Z,22.39
2022-08-18T07:47:53.989Z,22.41
2022-08-18T07:48:58.732Z,22.45
2022-08-18T07:50:31.570Z,22.44
2022-08-18T07:51:43.424Z,22.44
2022-08-18T07:52:52.258Z,22.46
2022-08-18T07:53:59.582Z,22.50
2022-08-18T07:55:10.724Z,22.52
2022-08-18T07:56:19.922Z,22.54
2022-08-18T07:57:35.365Z,22.54
2022-08-18T07:58:49.992Z,22.54
2022-08-18T08:00:02.627Z,22.55
2022-08-18T08:01:17.646Z,22.58
2022-08-18T08:02:32.137Z,22.59
2022-08-18T08:03:42.681Z,22.63
2022-08-18T08:05:04.798Z,22.67
2022-08-18T08:06:13.241Z,22.71
2022-08-18T08:07:24.859Z,22.74
2022-08-18T08:08:33.189Z,22.78
2022-08-18T08:09:51.199Z,22.81
2022-08-18T08:11:08.535Z,22.83
2022-08-18T08:12:22.987Z,22.86
2022-08-18T08:13:54.543Z,22.88
2022-08-18T08:15:10.237Z,22.90
2022-08-18T08:16:20.052Z,22.91
2022-08-18T08:17:30.562Z,22.93
2022-08-18T08:18:42.139Z,22.93
2022-08-18T08:20:01.638Z,22.94
2022-08-18T08:21:10.801Z,22.96
2022-08-18T08:22:20.529Z,22.97
2022-08-18T08:23:30.147Z,22.99
2022-08-18T08:24:42.044Z,23.01
2022-08-18T08:25:56.801Z,23.06
2022-08-18T08:27:06.198Z,23.10
2022-08-18T08:28:15.616Z,23.14
2022-08-18T08:29:26.571Z,23.17
2022-08-18T08:30:32.416Z,23.21
2022-08-18T08:31:46.323Z,23.25
2022-08-18T08:33:02.875Z,23.30
2022-08-18T08:34:13.320Z,23.35
2022-08-18T08:35:48.402Z,23.38
2022-08-18T08:36:45.648Z,23.41
2022-08-18T08:37:54.032Z,23.41
2022-08-18T08:39:05.674Z,23.41
2022-08-18T08:40:14.122Z,23.43
2022-08-18T08:41:25.680Z,23.41
2022-08-18T08:42:40.914Z,23.39
2022-08-18T08:43:47.813Z,23.36
2022-08-18T08:44:59.790Z,23.35
2022-08-18T08:46:11.109Z,23.35
2022-08-18T08:47:21.828Z,23.35
2022-08-18T08:48:31.012Z,23.35
2022-08-18T08:49:40.157Z,23.35
2022-08-18T08:50:49.873Z,23.35
2022-08-18T08:51:57.922Z,23.36
2022-08-18T08:53:07.182Z,23.37
2022-08-18T08:54:14.122Z,23.38
2022-08-18T08:55:25.324Z,23.42
2022-08-18T08:56:31.061Z,23.44
2022-08-18T08:57:38.092Z,23.49
2022-08-18T08:58:44.498Z,23.55
2022-08-18T08:59:49.696Z,23.63
2022-08-18T09:00:52.587Z,23.68
2022-08-18T09:02:08.492Z,23.74
2022-08-18T09:03:30.593Z,23.80
2022-08-18T09:04:54.225Z,23.85
2022-08-18T09:06:22.686Z,23.94
2022-08-18T09:07:39.626Z,23.99
2022-08-18T09:09:14.361Z,24.04
2022-08-18T09:10:41.707Z,24.09
2022-08-18T09:12:21.562Z,24.13
2022-08-18T09:13:50.049Z,24.11
2022-08-18T09:15:34.806Z,24.10
2022-08-18T09:16:49.162Z,24.08
2022-08-18T09:18:12.358Z,24.06
2022-08-18T09:19:36.737Z,24.02
2022-08-18T09:20:59.065Z,23.98
2022-08-18T09:22:09.012Z,23.95
2022-08-18T09:23:14.703Z,23.93
2022-08-18T09:24:25.718Z,23.92
2022-08-18T09:25:43.501Z,23.90
2022-08-18T09:26:50.772Z,23.93
2022-08-18T09:28:11.861Z,23.96
2022-08-18T09:29:21.746Z,24.03
2022-08-18T09:30:45.195Z,24.11
2022-08-18T09:32:12.488Z,24.15
2022-08-18T09:33:20.371Z,24.22
2022-08-18T09:34:47.236Z,24.26
2022-08-18T09:36:26.039Z,24.31
2022-08-18T09:37:34.592Z,24.35
2022-08-18T09:39:01.739Z,24.41
2022-08-18T09:41:01.180Z,24.50
2022-08-18T09:41:59.454Z,24.55
2022-08-18T09:43:12.183Z,24.59
2022-08-18T09:44:37.050Z,24.64
2022-08-18T09:45:57.711Z,24.71
2022-08-18T09:47:01.331Z,24.78
2022-08-18T09:48:25.462Z,24.78
2022-08-18T09:49:47.792Z,24.80
2022-08-18T09:51:23.432Z,24.79
2022-08-18T09:52:58.864Z,24.75
2022-08-18T09:54:21.082Z,24.78
2022-08-18T09:57:24.210Z,24.88
2022-08-18T09:58:55.611Z,24.89
2022-08-18T10:00:28.313Z,24.90
2022-08-18T10:01:41.487Z,24.94
2022-08-18T10:03:25.920Z,24.93
2022-08-18T10:04:35.577Z,24.93
2022-08-18T10:05:38.399Z,24.95
2022-08-18T10:06:48.423Z,24.99
2022-08-18T10:07:55.935Z,25.03
2022-08-18T10:09:26.765Z,25.03
2022-08-18T10:11:02.256Z,25.00
2022-08-18T10:12:27.530Z,24.98
2022-08-18T10:13:48.355Z,25.02
2022-08-18T10:15:12.172Z,25.01
2022-08-18T10:16:22.224Z,25.05
2022-08-18T10:17:39.861Z,25.09
2022-08-18T10:19:01.293Z,25.12
2022-08-18T10:20:25.803Z,25.20
2022-08-18T10:22:55.343Z,25.35
2022-08-18T10:24:35.063Z,25.45
2022-08-18T10:25:47.495Z,25.52
2022-08-18T10:27:27.926Z,25.57
2022-08-18T10:28:57.283Z,25.62
2022-08-18T10:29:59.598Z,25.68
2022-08-18T10:31:09.846Z,25.74
2022-08-18T10:32:44.153Z,25.77
2022-08-18T10:34:00.797Z,25.78
2022-08-18T10:35:05.854Z,25.82
2022-08-18T10:36:11.033Z,25.86
2022-08-18T10:37:17.070Z,25.90
2022-08-18T10:38:32.526Z,25.89
2022-08-18T10:39:47.456Z,25.88
2022-08-18T10:41:00.051Z,25.85
2022-08-18T10:42:19.265Z,25.81
2022-08-18T10:43:55.005Z,25.76
2022-08-18T10:45:07.147Z,25.68
2022-08-18T10:46:25.268Z,25.69
2022-08-18T10:47:33.432Z,25.72
2022-08-18T10:48:35.745Z,25.72
2022-08-18T10:49:49.456Z,25.68
2022-08-18T10:50:58.582Z,25.61
2022-08-18T10:52:33.985Z,25.53
2022-08-18T10:53:45.413Z,25.46
2022-08-18T10:55:06.265Z,25.42
2022-08-18T10:56:34.096Z,25.36
2022-08-18T10:57:51.100Z,25.34
2022-08-18T10:59:16.434Z,25.29
2022-08-18T11:00:21.966Z,25.30
2022-08-18T11:02:02.436Z,25.31
2022-08-18T11:04:38.717Z,25.35
2022-08-18T11:05:42.044Z,25.37
2022-08-18T11:06:50.274Z,25.40
2022-08-18T11:07:58.520Z,25.40
2022-08-18T11:09:02.854Z,25.40
2022-08-18T11:10:57.828Z,25.38
2022-08-18T11:13:15.914Z,25.47
2022-08-18T11:14:50.206Z,25.52
2022-08-18T11:16:04.309Z,25.59
2022-08-18T11:17:22.829Z,25.63
2022-08-18T11:18:42.847Z,25.67
2022-08-18T11:19:52.729Z,25.68
2022-08-18T11:21:22.332Z,25.70
2022-08-18T11:22:32.423Z,25.75
2022-08-18T11:23:37.747Z,25.76
2022-08-18T11:24:46.393Z,25.78
2022-08-18T11:25:53.229Z,25.81
2022-08-18T11:26:59.653Z,25.83
2022-08-18T11:28:03.454Z,25.82
2022-08-18T11:29:28.937Z,25.79
2022-08-18T11:30:36.884Z,25.83
2022-08-18T11:31:40.453Z,25.84
2022-08-18T11:32:55.323Z,25.82
2022-08-18T11:33:57.441Z,25.81
2022-08-18T11:35:04.018Z,25.84
2022-08-18T11:36:06.809Z,25.88
2022-08-18T11:37:20.857Z,25.91
2022-08-18T11:38:23.453Z,25.89
2022-08-18T11:39:37.726Z,25.91
2022-08-18T11:42:15.810Z,25.99
2022-08-18T11:43:29.915Z,26.03
2022-08-18T11:44:41.181Z,26.07
2022-08-18T11:45:54.715Z,26.06
2022-08-18T11:47:10.447Z,26.01
2022-08-18T11:48:21.027Z,25.99
2022-08-18T11:49:33.964Z,25.98
2022-08-18T11:50:54.402Z,26.01
2022-08-18T11:53:26.605Z,26.09
2022-08-18T11:54:39.223Z,26.13
2022-08-18T11:56:30.809Z,26.15
2022-08-18T11:57:50.039Z,26.13
2022-08-18T11:58:56.575Z,26.16
2022-08-18T12:00:00.448Z,26.17
2022-08-18T12:01:09.324Z,26.21
2022-08-18T12:02:16.735Z,26.24
2022-08-18T12:03:28.483Z,26.26
2022-08-18T12:04:38.376Z,26.28
2022-08-18T12:05:54.025Z,26.29
2022-08-18T12:07:04.603Z,26.32
2022-08-18T12:08:33.539Z,26.30
2022-08-18T12:11:26.680Z,26.25
2022-08-18T12:12:32.543Z,26.27
2022-08-18T12:13:34.263Z,26.32
2022-08-18T12:14:58.917Z,26.33
2022-08-18T12:16:11.309Z,26.34
2022-08-18T12:17:15.327Z,26.34
2022-08-18T12:18:28.107Z,26.34
2022-08-18T12:19:35.894Z,26.33
2022-08-18T12:20:37.576Z,26.35
2022-08-18T12:21:41.697Z,26.36
2022-08-18T12:22:45.398Z,26.38
2022-08-18T12:23:52.197Z,26.40
2022-08-18T12:24:54.724Z,26.43
2022-08-18T12:25:57.410Z,26.46
2022-08-18T12:27:01.572Z,26.49
2022-08-18T12:28:15.299Z,26.49
2022-08-18T12:29:18.695Z,26.47
2022-08-18T12:30:23.643Z,26.49
2022-08-18T12:31:28.931Z,26.51
2022-08-18T12:32:50.626Z,26.54
2022-08-18T12:34:00.663Z,26.54
2022-08-18T12:35:09.255Z,26.54
2022-08-18T12:36:13.549Z,26.54
2022-08-18T12:37:56.650Z,26.55
2022-08-18T12:38:44.092Z,26.56
2022-08-18T12:39:55.325Z,26.59
2022-08-18T12:40:58.026Z,26.59
2022-08-18T12:41:59.641Z,26.59
2022-08-18T12:43:02.363Z,26.58
2022-08-18T12:44:09.885Z,26.58
2022-08-18T12:45:15.390Z,26.55
2022-08-18T12:46:18.512Z,26.57
2022-08-18T12:47:22.286Z,26.58
2022-08-18T12:48:28.087Z,26.59
2022-08-18T12:49:29.713Z,26.59
2022-08-18T12:50:36.301Z,26.59
2022-08-18T12:51:40.434Z,26.59
2022-08-18T12:52:44.099Z,26.61
2022-08-18T12:53:58.203Z,26.56
2022-08-18T12:55:03.222Z,26.54
2022-08-18T12:56:08.795Z,26.55
2022-08-18T12:57:33.092Z,26.51
2022-08-18T12:58:36.550Z,26.45
2022-08-18T12:59:40.013Z,26.42
2022-08-18T13:00:44.503Z,26.38
2022-08-18T13:01:47.217Z,26.37
2022-08-18T13:02:49.870Z,26.36
2022-08-18T13:04:12.781Z,26.36
2022-08-18T13:05:16.585Z,26.32
2022-08-18T13:06:18.278Z,26.31
2022-08-18T13:07:21.175Z,26.31
2022-08-18T13:08:30.650Z,26.34
2022-08-18T13:09:52.555Z,26.36
2022-08-18T13:10:56.409Z,26.38
2022-08-18T13:12:00.285Z,26.44
2022-08-18T13:13:03.177Z,26.49
2022-08-18T13:14:08.851Z,26.52
2022-08-18T13:15:12.547Z,26.58
2022-08-18T13:16:30.306Z,26.62
2022-08-18T13:17:34.473Z,26.64
2022-08-18T13:18:36.880Z,26.67
2022-08-18T13:19:40.900Z,26.69
2022-08-18T13:20:45.075Z,26.68
2022-08-18T13:21:47.572Z,26.66
2022-08-18T13:22:52.681Z,26.65
2022-08-18T13:23:55.067Z,26.66
2022-08-18T13:24:57.761Z,26.67
2022-08-18T13:26:03.310Z,26.70
2022-08-18T13:27:18.460Z,26.72
2022-08-18T13:28:26.032Z,26.67
2022-08-18T13:29:32.268Z,26.67
2022-08-18T13:30:35.752Z,26.62
2022-08-18T13:31:38.683Z,26.58
2022-08-18T13:32:59.374Z,26.55
2022-08-18T13:34:04.070Z,26.50
2022-08-18T13:35:13.571Z,26.49
2022-08-18T13:36:16.611Z,26.49
2022-08-18T13:37:20.524Z,26.49
2022-08-18T13:38:27.661Z,26.51
2022-08-18T13:39:33.626Z,26.51
2022-08-18T13:40:38.250Z,26.51
2022-08-18T13:41:51.743Z,26.51
2022-08-18T13:42:55.361Z,26.52
2022-08-18T13:43:58.796Z,26.53
2022-08-18T13:45:24.698Z,26.56
2022-08-18T13:46:30.951Z,26.58
2022-08-18T13:47:38.382Z,26.61
2022-08-18T13:48:41.998Z,26.66
2022-08-18T13:49:43.705Z,26.65
2022-08-18T13:51:03.949Z,26.64
2022-08-18T13:52:12.132Z,26.64
2022-08-18T13:53:31.363Z,26.65
2022-08-18T13:54:35.472Z,26.68
2022-08-18T13:55:38.436Z,26.71
2022-08-18T13:56:40.064Z,26.74
2022-08-18T13:57:48.283Z,26.78
2022-08-18T13:58:53.966Z,26.79
2022-08-18T13:59:56.582Z,26.79
2022-08-18T14:01:22.821Z,26.79
2022-08-18T14:02:26.835Z,26.77
2022-08-18T14:03:42.758Z,26.76
2022-08-18T14:04:54.818Z,26.75
2022-08-18T14:06:01.493Z,26.75
2022-08-18T14:07:10.981Z,26.77
2022-08-18T14:08:19.243Z,26.77
2022-08-18T14:09:36.617Z,26.76
2022-08-18T14:10:41.027Z,26.74
2022-08-18T14:11:44.314Z,26.74
2022-08-18T14:12:56.646Z,26.72
2022-08-18T14:13:58.861Z,26.73
2022-08-18T14:15:01.861Z,26.75
2022-08-18T14:16:04.573Z,26.76
2022-08-18T14:17:07.216Z,26.78
2022-08-18T14:18:11.037Z,26.76
2022-08-18T14:19:36.752Z,26.76
2022-08-18T14:21:00.052Z,26.80
2022-08-18T14:22:19.905Z,26.81
2022-08-18T14:23:40.248Z,26.84
2022-08-18T14:25:12.200Z,26.83
2022-08-18T14:26:32.288Z,26.84
2022-08-18T14:27:37.580Z,26.87
2022-08-18T14:28:41.221Z,26.89
2022-08-18T14:29:47.788Z,26.92
2022-08-18T14:30:54.591Z,26.96
2022-08-18T14:31:57.484Z,27.01
2022-08-18T14:33:06.925Z,27.05
2022-08-18T14:34:14.263Z,27.09
2022-08-18T14:36:04.304Z,27.11
2022-08-18T14:36:46.709Z,27.12
2022-08-18T14:37:52.685Z,27.14
2022-08-18T14:39:00.118Z,27.17
2022-08-18T14:40:04.290Z,27.21
2022-08-18T14:41:11.928Z,27.25
2022-08-18T14:42:19.102Z,27.27
2022-08-18T14:43:24.970Z,27.30
2022-08-18T14:44:32.616Z,27.33
2022-08-18T14:45:36.180Z,27.35
2022-08-18T14:46:37.975Z,27.39
2022-08-18T14:47:43.795Z,27.40
2022-08-18T14:48:47.651Z,27.41
2022-08-18T14:49:50.417Z,27.41
2022-08-18T14:50:55.294Z,27.43
2022-08-18T14:51:59.256Z,27.45
2022-08-18T14:53:05.228Z,27.42
2022-08-18T14:54:07.860Z,27.39
2022-08-18T14:55:11.342Z,27.34
2022-08-18T14:56:14.356Z,27.32
2022-08-18T14:57:18.560Z,27.29
2022-08-18T14:58:22.227Z,27.26
2022-08-18T14:59:28.377Z,27.21
2022-08-18T15:00:31.110Z,27.20
2022-08-18T15:01:34.983Z,27.18